This is the latest recevied weather packets stored in our database for station/object SP6PGH-13. If no packets are shown the sender has not sent any weather packets the latest 1 day(s).
| Time | Temp. | Humidity | Pressure | Rain* | Wind** | Luminosity | Snow |
|---|---|---|---|---|---|---|---|
| 1778002126 | 22.22° C | 60% | 991 hPa | - | 0.89 m/s, 200° | 27 W/m² | - |
| 1778001226 | 22.78° C | 58% | 990.8 hPa | - | 0.89 m/s, 301° | 35 W/m² | - |
| 1778000325 | 23.89° C | 47% | 990.8 hPa | - | 0.45 m/s, 274° | 51 W/m² | - |
| 1777999424 | 25.56° C | 36% | 990.7 hPa | - | 0.45 m/s, 332° | 79 W/m² | - |
| 1777998523 | 25.56° C | 36% | 990.8 hPa | - | 0.45 m/s, 288° | 97 W/m² | - |
| 1777997622 | 26.11° C | 35% | 990.8 hPa | - | 0.45 m/s, 336° | 121 W/m² | - |
| 1777996721 | 26.67° C | 33% | 990.9 hPa | - | 0.45 m/s, 260° | 154 W/m² | - |
| 1777995820 | 27.22° C | 30% | 991 hPa | - | 0 m/s | 193 W/m² | - |
| 1777994918 | 27.22° C | 33% | 991.1 hPa | - | 0.45 m/s, 259° | 237 W/m² | - |
| 1777994017 | 26.67° C | 31% | 991.1 hPa | - | 0.89 m/s, 312° | 295 W/m² | - |
| 1777993116 | 27.78° C | 31% | 991.2 hPa | - | 0.45 m/s, 354° | 369 W/m² | - |
| 1777992215 | 27.78° C | 32% | 991.3 hPa | - | 0.45 m/s, 282° | 416 W/m² | - |
| 1777991314 | 26.11° C | 34% | 991.4 hPa | - | 0.45 m/s, 304° | 434 W/m² | - |
| 1777990413 | 25.56° C | 32% | 991.5 hPa | - | 0.45 m/s, 270° | 217 W/m² | - |
| 1777989512 | 26.67° C | 30% | 991.5 hPa | - | 0.45 m/s, 350° | 250 W/m² | - |
| 1777988611 | 27.22° C | 30% | 991.6 hPa | - | 0.45 m/s, 90° | 542 W/m² | - |
| 1777987710 | 27.22° C | 30% | 991.7 hPa | - | 0.89 m/s, 265° | 427 W/m² | - |
| 1777986808 | 26.67° C | 29% | 991.8 hPa | - | 0.89 m/s, 270° | 437 W/m² | - |
| 1777985907 | 26.67° C | 29% | 991.9 hPa | - | 0.89 m/s, 233° | 631 W/m² | - |
| 1777985006 | 26.67° C | 32% | 992 hPa | - | 0.89 m/s, 276° | 660 W/m² | - |
| 1777984104 | 27.22° C | 31% | 992.2 hPa | - | 1.34 m/s, 264° | 608 W/m² | - |
| 1777983204 | 26.67° C | 33% | 992.4 hPa | - | 0.89 m/s, 120° | 704 W/m² | - |
| 1777982303 | 26.67° C | 32% | 992.5 hPa | - | 0.89 m/s, 318° | 708 W/m² | - |
| 1777981402 | 26.11° C | 33% | 992.6 hPa | - | 0.89 m/s, 323° | 751 W/m² | - |
| 1777980500 | 26.67° C | 34% | 992.7 hPa | - | 0.89 m/s, 114° | 651 W/m² | - |
* Rain since midnight (hover to see other rain measurements)
** Current wind speed in m/s (hover to see current wind gust speed)